Time;durP1;ratioP1;P1;durP2;ratioP2;P2;SDS_P1;SDS_P2;PMS_P1;PMS_P2;Temp;Humidity;BMP_temperature;BMP_pressure;BME280_temperature;BME280_humidity;BME280_pressure;Samples;Min_cycle;Max_cycle;Signal;HPM_P1;HPM_P2
2021/06/14 00:01:48;;;;;;;9.60;4.80;;;;;;;;;;4990952;28;20399;-50
2021/06/14 00:04:14;;;;;;;6.30;5.23;;;;;;;;;;4991037;28;20374;-50
2021/06/14 00:06:40;;;;;;;7.90;5.20;;;;;;;;;;4973276;28;20391;-50
2021/06/14 00:09:06;;;;;;;10.03;5.47;;;;;;;;;;4991078;28;20408;-50
2021/06/14 00:11:32;;;;;;;9.10;5.23;;;;;;;;;;4990870;28;20439;-50
2021/06/14 00:13:59;;;;;;;6.17;5.20;;;;;;;;;;4991071;28;20420;-50
2021/06/14 00:16:25;;;;;;;8.30;5.97;;;;;;;;;;4993710;28;20375;-49
2021/06/14 00:18:51;;;;;;;10.10;6.47;;;;;;;;;;4994662;28;20717;-49
2021/06/14 00:21:17;;;;;;;9.63;6.33;;;;;;;;;;4994479;28;20496;-50
2021/06/14 00:23:43;;;;;;;8.37;5.23;;;;;;;;;;4994481;28;20773;-51
2021/06/14 00:26:11;;;;;;;9.50;6.00;;;;;;;;;;4994437;28;20439;-52
2021/06/14 00:28:38;;;;;;;8.90;5.60;;;;;;;;;;4994577;28;20404;-49
2021/06/14 00:31:04;;;;;;;8.60;6.03;;;;;;;;;;4994512;28;20485;-49
2021/06/14 00:33:30;;;;;;;13.53;5.70;;;;;;;;;;4994193;28;20924;-50
2021/06/14 00:35:56;;;;;;;7.43;5.60;;;;;;;;;;4994207;28;20469;-50
2021/06/14 00:38:22;;;;;;;16.73;6.23;;;;;;;;;;4994244;28;20790;-50
2021/06/14 00:40:48;;;;;;;7.80;5.70;;;;;;;;;;4994381;28;20481;-50
2021/06/14 00:43:15;;;;;;;6.90;5.33;;;;;;;;;;4994241;28;20833;-50
2021/06/14 00:45:45;;;;;;;7.63;5.60;;;;;;;;;;4976845;28;20427;-52
2021/06/14 00:48:12;;;;;;;13.97;5.60;;;;;;;;;;4993849;28;20379;-50
2021/06/14 00:50:44;;;;;;;10.57;7.40;;;;;;;;;;4994061;28;20419;-50
2021/06/14 00:53:11;;;;;;;8.30;5.67;;;;;;;;;;4993795;28;20460;-50
2021/06/14 00:55:37;;;;;;;6.10;5.30;;;;;;;;;;4994099;28;20404;-50
2021/06/14 00:58:03;;;;;;;10.03;6.77;;;;;;;;;;4993751;28;20408;-49
2021/06/14 01:00:29;;;;;;;7.10;5.17;;;;;;;;;;4993676;28;20517;-50
2021/06/14 01:02:56;;;;;;;12.93;6.53;;;;;;;;;;4993284;28;20802;-49
2021/06/14 01:05:27;;;;;;;10.73;5.87;;;;;;;;;;4993334;28;20403;-50
2021/06/14 01:07:53;;;;;;;6.00;5.40;;;;;;;;;;4993937;28;20403;-49
2021/06/14 01:10:19;;;;;;;7.47;5.40;;;;;;;;;;4993660;28;20382;-50
2021/06/14 01:12:54;;;;;;;12.93;5.73;;;;;;;;;;4993668;28;20494;-50
2021/06/14 01:15:21;;;;;;;6.80;5.40;;;;;;;;;;4993498;28;20791;-51
2021/06/14 01:17:49;;;;;;;7.03;5.77;;;;;;;;;;4993456;28;20390;-50
2021/06/14 01:20:34;;;;;;;6.17;5.57;;;;;;;;;;4993450;28;20929;-50
2021/06/14 01:23:19;;;;;;;8.53;5.80;;;;;;;;;;4993726;28;20447;-50
2021/06/14 01:26:04;;;;;;;8.23;5.70;;;;;;;;;;4993249;28;20867;-52
2021/06/14 01:28:31;;;;;;;9.30;5.80;;;;;;;;;;4993787;28;20437;-50
2021/06/14 01:30:58;;;;;;;8.50;5.50;;;;;;;;;;4993315;28;20809;-52
2021/06/14 01:33:25;;;;;;;11.10;5.93;;;;;;;;;;4993433;28;20396;-50
2021/06/14 01:35:53;;;;;;;6.83;5.60;;;;;;;;;;4993276;28;20431;-51
2021/06/14 01:38:22;;;;;;;8.03;5.77;;;;;;;;;;4993254;28;20506;-51
2021/06/14 01:40:49;;;;;;;10.60;6.50;;;;;;;;;;4993002;28;20464;-51
2021/06/14 01:43:16;;;;;;;12.67;6.30;;;;;;;;;;4993140;28;20404;-50
2021/06/14 01:45:44;;;;;;;8.83;5.53;;;;;;;;;;4992944;28;20415;-50
2021/06/14 01:48:10;;;;;;;6.50;5.50;;;;;;;;;;4992940;28;20407;-51
2021/06/14 01:50:36;;;;;;;6.77;5.77;;;;;;;;;;4993294;28;20851;-50
2021/06/14 01:53:03;;;;;;;7.57;5.70;;;;;;;;;;4992823;28;20407;-50
2021/06/14 01:55:29;;;;;;;6.70;5.90;;;;;;;;;;4992933;28;20404;-50
2021/06/14 01:57:56;;;;;;;11.37;5.60;;;;;;;;;;4992821;28;20798;-50
2021/06/14 02:00:23;;;;;;;9.10;5.60;;;;;;;;;;4992685;28;20471;-52
2021/06/14 02:02:49;;;;;;;9.07;5.70;;;;;;;;;;4992689;28;20506;-49
2021/06/14 02:05:16;;;;;;;12.30;6.07;;;;;;;;;;4992651;28;20796;-50
2021/06/14 02:07:42;;;;;;;10.53;5.60;;;;;;;;;;4992558;28;20408;-50
2021/06/14 02:10:09;;;;;;;9.83;6.00;;;;;;;;;;4992859;28;20404;-50
2021/06/14 02:12:39;;;;;;;10.13;5.50;;;;;;;;;;4992355;28;20402;-50
2021/06/14 02:15:05;;;;;;;9.27;6.63;;;;;;;;;;4992556;28;20404;-52
2021/06/14 02:17:31;;;;;;;6.73;5.40;;;;;;;;;;4992213;28;20413;-50
2021/06/14 02:19:58;;;;;;;6.77;5.27;;;;;;;;;;4992361;28;20430;-50
2021/06/14 02:22:24;;;;;;;7.20;6.13;;;;;;;;;;4992226;28;20450;-50
2021/06/14 02:24:50;;;;;;;11.77;5.50;;;;;;;;;;4992439;28;20480;-52
2021/06/14 02:27:17;;;;;;;6.80;5.60;;;;;;;;;;4992053;28;20459;-50
2021/06/14 02:29:43;;;;;;;10.57;5.73;;;;;;;;;;4992266;28;20404;-50
2021/06/14 02:32:09;;;;;;;10.73;5.80;;;;;;;;;;4992137;28;20456;-50
2021/06/14 02:34:36;;;;;;;10.97;6.47;;;;;;;;;;4992079;28;20383;-51
2021/06/14 02:37:03;;;;;;;8.20;6.27;;;;;;;;;;4991823;28;20772;-51
2021/06/14 02:39:30;;;;;;;8.37;5.90;;;;;;;;;;4991570;28;20777;-50
2021/06/14 02:41:56;;;;;;;6.80;5.60;;;;;;;;;;4992005;28;20394;-50
2021/06/14 02:44:23;;;;;;;9.57;6.40;;;;;;;;;;4991874;28;20395;-49
2021/06/14 02:46:50;;;;;;;8.67;5.93;;;;;;;;;;4991752;28;20385;-50
2021/06/14 02:49:16;;;;;;;9.87;6.27;;;;;;;;;;4991862;28;20412;-49
2021/06/14 02:51:43;;;;;;;7.10;5.50;;;;;;;;;;4991752;28;20427;-50
2021/06/14 02:54:16;;;;;;;8.20;6.10;;;;;;;;;;4991726;28;20379;-50
2021/06/14 02:56:42;;;;;;;8.77;5.80;;;;;;;;;;4991897;28;20770;-49
2021/06/14 02:59:11;;;;;;;11.40;6.00;;;;;;;;;;4991712;28;20387;-50
2021/06/14 03:01:38;;;;;;;6.43;5.70;;;;;;;;;;4991568;28;20509;-52
2021/06/14 03:04:05;;;;;;;10.63;6.60;;;;;;;;;;4991627;28;20412;-50
2021/06/14 03:06:31;;;;;;;18.30;6.90;;;;;;;;;;4991630;28;20904;-52
2021/06/14 03:08:58;;;;;;;10.80;6.43;;;;;;;;;;4991653;28;20431;-51
2021/06/14 03:11:27;;;;;;;8.33;6.13;;;;;;;;;;4991611;28;20402;-50
2021/06/14 03:13:54;;;;;;;11.20;6.70;;;;;;;;;;4991422;28;20416;-51
2021/06/14 03:16:22;;;;;;;7.93;5.70;;;;;;;;;;4991392;28;20899;-50
2021/06/14 03:18:49;;;;;;;8.17;5.93;;;;;;;;;;4991576;28;20450;-49
2021/06/14 03:21:15;;;;;;;10.37;6.40;;;;;;;;;;4991634;28;20617;-50
2021/06/14 03:23:41;;;;;;;9.70;6.00;;;;;;;;;;4991410;28;20405;-50
2021/06/14 03:26:10;;;;;;;7.47;6.40;;;;;;;;;;4974016;28;20429;-49
2021/06/14 03:28:38;;;;;;;7.43;6.00;;;;;;;;;;4991486;28;20408;-50
2021/06/14 03:31:04;;;;;;;12.37;7.20;;;;;;;;;;4991694;28;20469;-50
2021/06/14 03:33:30;;;;;;;11.27;6.60;;;;;;;;;;4991541;28;20387;-51
2021/06/14 03:35:56;;;;;;;9.87;6.33;;;;;;;;;;4991384;28;20485;-50
2021/06/14 03:38:22;;;;;;;9.20;7.13;;;;;;;;;;4991443;28;20407;-50
2021/06/14 03:40:49;;;;;;;9.83;6.30;;;;;;;;;;4991146;28;20459;-50
2021/06/14 03:43:14;;;;;;;9.90;6.90;;;;;;;;;;4991186;28;20423;-50
2021/06/14 03:45:40;;;;;;;8.13;6.07;;;;;;;;;;4991206;28;20404;-52
2021/06/14 03:48:07;;;;;;;14.30;6.33;;;;;;;;;;4991048;28;20793;-50
2021/06/14 03:50:33;;;;;;;11.50;6.30;;;;;;;;;;4994350;28;20410;-50
2021/06/14 03:53:00;;;;;;;10.20;5.60;;;;;;;;;;4995142;28;20407;-51
2021/06/14 03:55:26;;;;;;;10.63;6.90;;;;;;;;;;4995163;28;20379;-50
2021/06/14 03:57:52;;;;;;;9.13;6.73;;;;;;;;;;4994830;28;20419;-49
2021/06/14 04:00:18;;;;;;;9.47;6.00;;;;;;;;;;4995173;28;20463;-50
2021/06/14 04:02:44;;;;;;;10.20;7.23;;;;;;;;;;4994967;28;20430;-49
2021/06/14 04:05:11;;;;;;;10.23;7.20;;;;;;;;;;4994941;28;20909;-51
2021/06/14 04:07:37;;;;;;;10.37;5.53;;;;;;;;;;4994835;28;20440;-51
2021/06/14 04:10:04;;;;;;;11.20;5.63;;;;;;;;;;4994888;28;20418;-50
2021/06/14 04:12:31;;;;;;;8.70;5.90;;;;;;;;;;4994619;28;20420;-50
2021/06/14 04:14:57;;;;;;;7.60;5.83;;;;;;;;;;4994674;28;20393;-50
2021/06/14 04:17:23;;;;;;;5.87;5.27;;;;;;;;;;4994665;28;20379;-50
2021/06/14 04:19:49;;;;;;;11.43;6.20;;;;;;;;;;4994559;28;21083;-49
2021/06/14 04:22:16;;;;;;;12.57;5.60;;;;;;;;;;4994627;28;20413;-50
2021/06/14 04:24:42;;;;;;;11.67;6.50;;;;;;;;;;4994749;28;20773;-50
2021/06/14 04:27:08;;;;;;;9.17;6.23;;;;;;;;;;4994200;28;20406;-52
2021/06/14 04:29:35;;;;;;;7.80;5.87;;;;;;;;;;4994611;28;20407;-51
2021/06/14 04:32:00;;;;;;;7.27;5.20;;;;;;;;;;4994439;28;20498;-49
2021/06/14 04:34:27;;;;;;;8.20;6.20;;;;;;;;;;4994489;28;20483;-50
2021/06/14 04:36:53;;;;;;;9.33;5.70;;;;;;;;;;4994234;28;20880;-49
2021/06/14 04:39:19;;;;;;;7.73;5.87;;;;;;;;;;4994337;28;20378;-50
2021/06/14 04:41:45;;;;;;;7.17;5.90;;;;;;;;;;4994147;28;20794;-54
2021/06/14 04:44:12;;;;;;;13.40;6.23;;;;;;;;;;4994283;28;20418;-50
2021/06/14 04:46:38;;;;;;;11.53;7.30;;;;;;;;;;4993945;28;20408;-50
2021/06/14 04:49:04;;;;;;;10.13;6.03;;;;;;;;;;4994248;28;20893;-50
2021/06/14 04:51:31;;;;;;;10.07;6.17;;;;;;;;;;4993974;28;20455;-50
2021/06/14 04:53:57;;;;;;;14.20;5.20;;;;;;;;;;4993955;28;20886;-49
2021/06/14 04:56:23;;;;;;;10.63;5.60;;;;;;;;;;4993758;28;20498;-49
2021/06/14 04:58:49;;;;;;;7.67;6.50;;;;;;;;;;4994707;28;20412;-50
2021/06/14 05:01:15;;;;;;;8.67;6.27;;;;;;;;;;4993179;28;20464;-50
2021/06/14 05:03:41;;;;;;;9.23;5.57;;;;;;;;;;4993963;28;20870;-50
2021/06/14 05:06:07;;;;;;;9.70;6.40;;;;;;;;;;4993838;28;20432;-48
2021/06/14 05:08:34;;;;;;;6.53;5.50;;;;;;;;;;4993865;28;20403;-50
2021/06/14 05:11:00;;;;;;;9.03;5.90;;;;;;;;;;4993773;28;20414;-50
2021/06/14 05:13:26;;;;;;;17.33;6.27;;;;;;;;;;4993704;28;21035;-49
2021/06/14 05:15:52;;;;;;;8.03;5.30;;;;;;;;;;4993855;28;20411;-49
2021/06/14 05:18:18;;;;;;;7.30;6.10;;;;;;;;;;4993660;28;20440;-50
2021/06/14 05:20:44;;;;;;;7.40;5.07;;;;;;;;;;4993783;28;20456;-49
2021/06/14 05:23:10;;;;;;;12.17;5.93;;;;;;;;;;4993534;28;20379;-50
2021/06/14 05:25:36;;;;;;;9.33;5.00;;;;;;;;;;4993594;28;20400;-49
2021/06/14 05:28:02;;;;;;;7.30;5.63;;;;;;;;;;4993374;28;20921;-50
2021/06/14 05:30:28;;;;;;;7.13;4.90;;;;;;;;;;4993578;28;21044;-50
2021/06/14 05:32:54;;;;;;;9.33;4.90;;;;;;;;;;4993345;28;20409;-50
2021/06/14 05:35:20;;;;;;;8.50;4.90;;;;;;;;;;4976035;28;20391;-50
2021/06/14 05:37:48;;;;;;;9.07;5.47;;;;;;;;;;4993051;28;20393;-50
2021/06/14 05:40:15;;;;;;;6.97;4.43;;;;;;;;;;4993268;28;20437;-50
2021/06/14 05:42:41;;;;;;;7.50;5.40;;;;;;;;;;4993232;28;20399;-50
2021/06/14 05:45:09;;;;;;;8.03;4.70;;;;;;;;;;4993259;28;20375;-50
2021/06/14 05:47:35;;;;;;;6.50;4.63;;;;;;;;;;4992945;28;20402;-51
2021/06/14 05:50:03;;;;;;;6.07;4.67;;;;;;;;;;4993157;28;20491;-50
2021/06/14 05:52:29;;;;;;;9.70;4.47;;;;;;;;;;4992809;28;20444;-50
2021/06/14 05:54:55;;;;;;;7.87;4.57;;;;;;;;;;4975388;28;20393;-50
2021/06/14 05:57:21;;;;;;;7.30;3.90;;;;;;;;;;4992833;28;20382;-50
2021/06/14 05:59:47;;;;;;;5.87;4.37;;;;;;;;;;4992737;28;20441;-50
2021/06/14 06:02:13;;;;;;;7.73;4.47;;;;;;;;;;4992700;28;20424;-55
2021/06/14 06:04:39;;;;;;;6.63;3.80;;;;;;;;;;4992703;28;20375;-50
2021/06/14 06:07:05;;;;;;;5.00;3.93;;;;;;;;;;4992537;28;20408;-50
2021/06/14 06:09:31;;;;;;;4.33;3.80;;;;;;;;;;4992569;28;20375;-50
2021/06/14 06:11:57;;;;;;;4.93;4.40;;;;;;;;;;4992454;28;20406;-49
2021/06/14 06:14:23;;;;;;;5.53;4.13;;;;;;;;;;4974307;28;20905;-50
2021/06/14 06:16:49;;;;;;;6.00;3.80;;;;;;;;;;4992508;28;20400;-49
2021/06/14 06:19:15;;;;;;;7.93;4.30;;;;;;;;;;4992441;28;20407;-50
2021/06/14 06:21:41;;;;;;;4.13;3.73;;;;;;;;;;4992375;28;20535;-50
2021/06/14 06:24:08;;;;;;;6.30;3.80;;;;;;;;;;4992233;28;20451;-50
2021/06/14 06:26:34;;;;;;;5.70;4.37;;;;;;;;;;4992219;28;20892;-50
2021/06/14 06:29:00;;;;;;;6.53;3.70;;;;;;;;;;4992281;28;20370;-50
2021/06/14 06:31:26;;;;;;;4.63;3.83;;;;;;;;;;4992220;28;20397;-49
2021/06/14 06:33:52;;;;;;;5.50;3.57;;;;;;;;;;4992208;28;20404;-50
2021/06/14 06:36:18;;;;;;;4.63;3.03;;;;;;;;;;4991860;28;20396;-49
2021/06/14 06:38:44;;;;;;;4.80;3.60;;;;;;;;;;4992138;28;20503;-50
2021/06/14 06:41:10;;;;;;;5.33;4.20;;;;;;;;;;4991857;28;20464;-50
2021/06/14 06:43:36;;;;;;;7.90;5.30;;;;;;;;;;4992088;28;20451;-50
2021/06/14 06:46:06;;;;;;;5.07;3.40;;;;;;;;;;4991764;28;20771;-50
2021/06/14 06:48:32;;;;;;;8.70;3.67;;;;;;;;;;4992116;28;20404;-49
2021/06/14 06:50:58;;;;;;;6.80;3.53;;;;;;;;;;4974296;28;20447;-49
2021/06/14 06:53:27;;;;;;;7.03;3.40;;;;;;;;;;4991724;28;20431;-51
2021/06/14 06:55:54;;;;;;;3.53;3.07;;;;;;;;;;4991558;28;20896;-54
2021/06/14 06:58:20;;;;;;;7.03;3.63;;;;;;;;;;4991872;28;20499;-48
2021/06/14 07:00:48;;;;;;;5.20;3.43;;;;;;;;;;4991609;28;20543;-49
2021/06/14 07:03:16;;;;;;;5.50;4.07;;;;;;;;;;4991649;28;20515;-49
2021/06/14 07:05:42;;;;;;;3.87;3.37;;;;;;;;;;4991883;28;20411;-48
2021/06/14 07:08:08;;;;;;;7.43;3.37;;;;;;;;;;4991621;28;20408;-49
2021/06/14 07:10:34;;;;;;;4.27;3.40;;;;;;;;;;4991484;28;20491;-48
2021/06/14 07:13:00;;;;;;;5.97;3.50;;;;;;;;;;4991672;28;20931;-48
2021/06/14 07:15:26;;;;;;;4.93;3.43;;;;;;;;;;4991547;28;20540;-49
2021/06/14 07:17:52;;;;;;;5.37;3.63;;;;;;;;;;4991415;28;20957;-49
2021/06/14 07:20:18;;;;;;;8.47;3.47;;;;;;;;;;4991580;28;20451;-49
2021/06/14 07:22:44;;;;;;;6.63;3.83;;;;;;;;;;4991299;28;20444;-48
2021/06/14 07:25:11;;;;;;;4.57;3.20;;;;;;;;;;4991390;28;20912;-49
2021/06/14 07:27:38;;;;;;;6.13;4.03;;;;;;;;;;4991299;28;20490;-48
2021/06/14 07:30:07;;;;;;;6.03;3.63;;;;;;;;;;4991579;28;20434;-51
2021/06/14 07:32:33;;;;;;;3.73;3.30;;;;;;;;;;4991285;28;20481;-48
2021/06/14 07:34:59;;;;;;;6.37;3.70;;;;;;;;;;4991701;28;20424;-48
2021/06/14 07:37:25;;;;;;;6.47;3.60;;;;;;;;;;4991456;28;20404;-48
2021/06/14 07:39:51;;;;;;;5.83;3.20;;;;;;;;;;4991669;28;20943;-47
2021/06/14 07:42:17;;;;;;;8.10;3.03;;;;;;;;;;4991387;28;20416;-49
2021/06/14 07:44:43;;;;;;;5.90;3.63;;;;;;;;;;4991679;28;20427;-48
2021/06/14 07:47:10;;;;;;;6.03;3.50;;;;;;;;;;4991313;28;20517;-48
2021/06/14 07:49:36;;;;;;;7.13;3.67;;;;;;;;;;4991674;28;20400;-48
2021/06/14 07:52:03;;;;;;;6.70;3.40;;;;;;;;;;4991223;28;20450;-47
2021/06/14 07:54:29;;;;;;;5.20;3.23;;;;;;;;;;4991361;28;20396;-48
2021/06/14 07:56:55;;;;;;;7.43;3.50;;;;;;;;;;4990924;28;20491;-48
2021/06/14 07:59:21;;;;;;;6.00;3.30;;;;;;;;;;4991254;28;20404;-49
2021/06/14 08:01:47;;;;;;;4.70;3.20;;;;;;;;;;4990826;28;20494;-49
2021/06/14 08:04:13;;;;;;;11.13;3.27;;;;;;;;;;4991098;28;20404;-51
2021/06/14 08:06:39;;;;;;;4.00;3.17;;;;;;;;;;4990912;28;20896;-50
2021/06/14 08:09:09;;;;;;;6.10;3.43;;;;;;;;;;4991009;28;20400;-48
2021/06/14 08:11:35;;;;;;;6.30;3.30;;;;;;;;;;4991084;28;20427;-50
2021/06/14 08:14:01;;;;;;;4.87;3.20;;;;;;;;;;4990792;28;20420;-47
2021/06/14 08:16:27;;;;;;;3.20;2.90;;;;;;;;;;4991137;28;21101;-48
2021/06/14 08:21:41;;;;;;;4.80;4.30;;;;;;;;;;4990883;28;20873;-48
2021/06/14 08:26:53;;;;;;;3.97;2.83;;;;;;;;;;4990610;28;20470;-48
2021/06/14 08:29:19;;;;;;;3.50;3.23;;;;;;;;;;4990740;28;20912;-50
2021/06/14 08:31:45;;;;;;;5.23;2.77;;;;;;;;;;4990833;28;20427;-50
2021/06/14 08:34:11;;;;;;;10.63;4.03;;;;;;;;;;4990660;28;20407;-51
2021/06/14 08:36:39;;;;;;;6.50;3.60;;;;;;;;;;4992278;28;20400;-51
2021/06/14 08:39:06;;;;;;;3.70;3.13;;;;;;;;;;4993790;28;20776;-49
2021/06/14 08:41:32;;;;;;;7.40;3.20;;;;;;;;;;4994242;28;20994;-49
2021/06/14 08:43:59;;;;;;;3.30;2.90;;;;;;;;;;4994113;28;20404;-48
2021/06/14 08:46:25;;;;;;;3.57;2.37;;;;;;;;;;4994172;28;20466;-48
2021/06/14 08:48:51;;;;;;;8.30;3.43;;;;;;;;;;4994158;28;20415;-49
2021/06/14 08:51:17;;;;;;;4.30;2.90;;;;;;;;;;4994094;28;20503;-51
2021/06/14 08:53:43;;;;;;;6.13;3.47;;;;;;;;;;4993817;28;20510;-50
2021/06/14 08:56:09;;;;;;;7.00;4.30;;;;;;;;;;4993946;28;20466;-51
2021/06/14 08:58:36;;;;;;;5.53;3.17;;;;;;;;;;4994101;28;20435;-50
2021/06/14 09:01:03;;;;;;;3.00;2.70;;;;;;;;;;4993911;28;20819;-52
2021/06/14 09:03:29;;;;;;;7.30;3.10;;;;;;;;;;4993996;28;20408;-48
2021/06/14 09:05:56;;;;;;;2.80;2.60;;;;;;;;;;4993848;28;20404;-54
2021/06/14 09:08:24;;;;;;;3.20;2.63;;;;;;;;;;4993904;28;20970;-53
2021/06/14 09:10:51;;;;;;;3.43;2.87;;;;;;;;;;4993576;28;20420;-51
2021/06/14 09:13:22;;;;;;;3.70;3.40;;;;;;;;;;4994096;28;20411;-49
2021/06/14 09:16:05;;;;;;;3.93;3.07;;;;;;;;;;4993223;28;20561;-48
2021/06/14 09:18:31;;;;;;;5.63;2.97;;;;;;;;;;4993990;28;20935;-48
2021/06/14 09:20:57;;;;;;;3.97;3.07;;;;;;;;;;4993404;28;20463;-48
2021/06/14 09:23:23;;;;;;;3.47;2.87;;;;;;;;;;4993746;28;20416;-49
2021/06/14 09:25:49;;;;;;;6.27;3.17;;;;;;;;;;4993591;28;20424;-50
2021/06/14 09:28:15;;;;;;;4.80;3.60;;;;;;;;;;4993418;28;20404;-48
2021/06/14 09:30:41;;;;;;;5.20;2.60;;;;;;;;;;4993288;28;20416;-49
2021/06/14 09:33:08;;;;;;;4.20;3.10;;;;;;;;;;4993267;28;20466;-51
2021/06/14 09:35:35;;;;;;;4.83;3.57;;;;;;;;;;4993123;28;20442;-48
2021/06/14 09:38:07;;;;;;;8.93;2.70;;;;;;;;;;4993176;28;20404;-49
2021/06/14 09:40:33;;;;;;;3.23;2.93;;;;;;;;;;4993218;28;20988;-51
2021/06/14 09:42:59;;;;;;;6.23;3.20;;;;;;;;;;4993037;28;20480;-48
2021/06/14 09:45:26;;;;;;;3.70;2.80;;;;;;;;;;4993217;28;20446;-51
2021/06/14 09:47:54;;;;;;;3.10;2.77;;;;;;;;;;4992415;28;20432;-50
2021/06/14 09:50:31;;;;;;;2.97;2.77;;;;;;;;;;4993133;28;20415;-49
2021/06/14 09:53:09;;;;;;;5.00;3.00;;;;;;;;;;4992553;28;20647;-48
2021/06/14 09:55:35;;;;;;;6.07;3.33;;;;;;;;;;4992626;28;20404;-51
2021/06/14 09:58:22;;;;;;;3.53;2.90;;;;;;;;;;4992529;28;20487;-50
2021/06/14 10:00:51;;;;;;;4.50;3.13;;;;;;;;;;4992401;28;20464;-49
2021/06/14 10:03:17;;;;;;;2.93;2.70;;;;;;;;;;4991789;28;20392;-48
2021/06/14 10:05:50;;;;;;;3.53;2.73;;;;;;;;;;4992942;28;20428;-48
2021/06/14 10:08:27;;;;;;;3.20;2.90;;;;;;;;;;4992529;28;20408;-48
2021/06/14 10:11:04;;;;;;;3.83;3.10;;;;;;;;;;4992623;28;20423;-48
2021/06/14 10:13:30;;;;;;;3.60;2.60;;;;;;;;;;4992417;28;20408;-48
2021/06/14 10:16:00;;;;;;;3.97;2.90;;;;;;;;;;4992489;28;20776;-48
2021/06/14 10:18:30;;;;;;;5.10;2.63;;;;;;;;;;4992323;28;20407;-48
2021/06/14 10:20:56;;;;;;;3.30;3.00;;;;;;;;;;4992460;28;20459;-48
2021/06/14 10:23:22;;;;;;;3.97;2.87;;;;;;;;;;4992283;28;20396;-48
2021/06/14 10:25:48;;;;;;;3.63;2.73;;;;;;;;;;4974991;28;20454;-54
2021/06/14 10:28:15;;;;;;;3.40;2.97;;;;;;;;;;4992230;28;20408;-48
2021/06/14 10:30:41;;;;;;;4.20;3.00;;;;;;;;;;4992385;28;20420;-48
2021/06/14 10:33:07;;;;;;;4.80;2.70;;;;;;;;;;4992221;28;20430;-48
2021/06/14 10:35:33;;;;;;;7.00;2.50;;;;;;;;;;4992336;28;20439;-48
2021/06/14 10:38:01;;;;;;;3.83;3.13;;;;;;;;;;4992049;28;20405;-48
2021/06/14 10:40:28;;;;;;;3.13;2.83;;;;;;;;;;4991900;28;20456;-47
2021/06/14 10:42:54;;;;;;;4.67;3.33;;;;;;;;;;4991928;28;20446;-48
2021/06/14 10:45:23;;;;;;;3.00;2.67;;;;;;;;;;4991974;28;20914;-49
2021/06/14 10:47:49;;;;;;;2.83;2.47;;;;;;;;;;4991684;28;20424;-48
2021/06/14 10:50:16;;;;;;;3.17;2.90;;;;;;;;;;4991553;28;20404;-48
2021/06/14 10:52:43;;;;;;;2.90;2.67;;;;;;;;;;4984960;28;20456;-51
2021/06/14 10:55:11;;;;;;;3.20;2.73;;;;;;;;;;4991048;28;20404;-49
2021/06/14 10:57:37;;;;;;;4.63;3.10;;;;;;;;;;4991213;28;20400;-52
2021/06/14 11:00:04;;;;;;;2.80;2.60;;;;;;;;;;4990574;28;20459;-51
2021/06/14 11:02:30;;;;;;;5.47;3.03;;;;;;;;;;4991644;28;20432;-48
2021/06/14 11:05:06;;;;;;;4.40;3.13;;;;;;;;;;4991503;28;20778;-48
2021/06/14 11:07:32;;;;;;;3.70;3.20;;;;;;;;;;4991424;28;20396;-48
2021/06/14 11:09:58;;;;;;;4.60;3.47;;;;;;;;;;4991512;28;20810;-48
2021/06/14 11:12:28;;;;;;;3.17;2.60;;;;;;;;;;4992074;28;20725;-49
2021/06/14 11:14:54;;;;;;;4.20;2.80;;;;;;;;;;4972810;28;20424;-50
2021/06/14 11:17:27;;;;;;;3.00;2.70;;;;;;;;;;4989469;28;20431;-49
2021/06/14 11:19:59;;;;;;;4.60;2.70;;;;;;;;;;4989912;28;20460;-50
2021/06/14 11:22:33;;;;;;;5.53;2.90;;;;;;;;;;4990993;28;20455;-48
2021/06/14 11:25:00;;;;;;;4.57;2.80;;;;;;;;;;4991362;28;20983;-50
2021/06/14 11:27:36;;;;;;;4.20;2.47;;;;;;;;;;4991305;28;20503;-50
2021/06/14 11:30:11;;;;;;;3.23;2.97;;;;;;;;;;4989971;28;20462;-49
2021/06/14 11:32:38;;;;;;;3.10;2.80;;;;;;;;;;4991171;28;21012;-49
2021/06/14 11:35:05;;;;;;;2.43;2.23;;;;;;;;;;4990895;28;20436;-50
2021/06/14 11:37:41;;;;;;;3.57;2.77;;;;;;;;;;4990776;28;20716;-50
2021/06/14 11:40:09;;;;;;;3.30;3.10;;;;;;;;;;4991137;28;20459;-49
2021/06/14 11:42:49;;;;;;;2.90;2.60;;;;;;;;;;4990697;28;20455;-49
2021/06/14 11:45:27;;;;;;;2.87;2.60;;;;;;;;;;4991196;28;20404;-49
2021/06/14 11:47:53;;;;;;;4.23;3.13;;;;;;;;;;4990854;28;20404;-50
2021/06/14 11:50:23;;;;;;;2.93;2.73;;;;;;;;;;4991157;28;20519;-49
2021/06/14 11:52:56;;;;;;;5.20;2.40;;;;;;;;;;4990621;28;20443;-49
2021/06/14 11:55:22;;;;;;;5.70;2.80;;;;;;;;;;4990999;28;20421;-49
2021/06/14 11:57:54;;;;;;;2.97;2.67;;;;;;;;;;4990635;28;20415;-50
2021/06/14 12:00:27;;;;;;;5.43;2.80;;;;;;;;;;4990926;28;20978;-49
2021/06/14 12:02:53;;;;;;;3.53;2.90;;;;;;;;;;4990721;28;20428;-50
2021/06/14 12:05:30;;;;;;;6.33;3.10;;;;;;;;;;4990662;28;20432;-49
2021/06/14 12:07:56;;;;;;;4.17;2.93;;;;;;;;;;4990402;28;20407;-49
2021/06/14 12:10:22;;;;;;;4.73;2.90;;;;;;;;;;4989943;28;20408;-50
2021/06/14 12:13:00;;;;;;;3.47;3.17;;;;;;;;;;4994545;28;20863;-50
2021/06/14 12:15:26;;;;;;;3.17;2.90;;;;;;;;;;4994796;28;20403;-50
2021/06/14 12:17:52;;;;;;;5.10;2.53;;;;;;;;;;4994377;28;20408;-50
2021/06/14 12:20:21;;;;;;;3.33;2.80;;;;;;;;;;4994569;28;20477;-50
2021/06/14 12:22:48;;;;;;;6.60;2.60;;;;;;;;;;4994531;28;20456;-49
2021/06/14 12:25:14;;;;;;;3.70;2.80;;;;;;;;;;4994599;28;20399;-49
2021/06/14 12:27:41;;;;;;;2.60;2.40;;;;;;;;;;4994447;28;21018;-49
2021/06/14 12:30:08;;;;;;;3.17;2.40;;;;;;;;;;4994400;28;20436;-52
2021/06/14 12:32:34;;;;;;;4.47;2.60;;;;;;;;;;4994030;28;20430;-49
2021/06/14 12:35:02;;;;;;;4.47;2.60;;;;;;;;;;4994447;28;20404;-49
2021/06/14 12:37:28;;;;;;;2.93;2.70;;;;;;;;;;4994600;28;20466;-50
2021/06/14 12:40:14;;;;;;;4.77;2.40;;;;;;;;;;4994570;28;20424;-49
2021/06/14 12:42:41;;;;;;;2.97;2.70;;;;;;;;;;4994362;28;20420;-49
2021/06/14 12:45:14;;;;;;;2.73;2.53;;;;;;;;;;4994124;28;20892;-49
2021/06/14 12:47:47;;;;;;;4.83;2.50;;;;;;;;;;4994268;28;20395;-50
2021/06/14 12:50:22;;;;;;;2.60;2.23;;;;;;;;;;4994086;28;20497;-50
2021/06/14 12:52:48;;;;;;;3.03;2.33;;;;;;;;;;4993937;28;20478;-49
2021/06/14 12:55:21;;;;;;;5.00;2.53;;;;;;;;;;4990059;28;20408;-49
2021/06/14 12:57:47;;;;;;;2.87;2.57;;;;;;;;;;4994007;28;20485;-49
2021/06/14 13:00:15;;;;;;;3.83;3.03;;;;;;;;;;4993995;28;20411;-50
2021/06/14 13:02:42;;;;;;;2.70;2.50;;;;;;;;;;4993862;28;20974;-49
2021/06/14 13:05:18;;;;;;;3.93;2.50;;;;;;;;;;4994015;28;20408;-50
2021/06/14 13:07:59;;;;;;;2.83;2.30;;;;;;;;;;4993424;28;20407;-50
2021/06/14 13:10:30;;;;;;;4.10;3.40;;;;;;;;;;4994034;28;20518;-49
2021/06/14 13:12:56;;;;;;;2.40;2.30;;;;;;;;;;4992532;28;20455;-50
2021/06/14 13:15:28;;;;;;;3.20;2.40;;;;;;;;;;4993358;28;20404;-49
2021/06/14 13:17:54;;;;;;;5.40;2.87;;;;;;;;;;4993317;28;20411;-50
2021/06/14 13:20:24;;;;;;;2.93;2.57;;;;;;;;;;4993590;28;20407;-51
2021/06/14 13:22:50;;;;;;;4.40;3.20;;;;;;;;;;4992891;28;21171;-50
2021/06/14 13:25:17;;;;;;;3.40;3.07;;;;;;;;;;4992789;28;20495;-50
2021/06/14 13:27:53;;;;;;;4.60;2.87;;;;;;;;;;4991322;28;20970;-50
2021/06/14 13:30:21;;;;;;;3.80;2.80;;;;;;;;;;4990886;28;21059;-50
2021/06/14 13:33:01;;;;;;;2.43;2.23;;;;;;;;;;4991089;28;20944;-50
2021/06/14 13:35:27;;;;;;;3.87;2.40;;;;;;;;;;4992169;28;20568;-49
2021/06/14 13:37:55;;;;;;;5.53;2.77;;;;;;;;;;4991689;28;21117;-50
2021/06/14 13:40:26;;;;;;;4.80;3.10;;;;;;;;;;4995014;28;20407;-50
2021/06/14 13:42:54;;;;;;;2.40;2.17;;;;;;;;;;4995345;28;20438;-50
2021/06/14 13:45:37;;;;;;;3.50;2.20;;;;;;;;;;5012761;28;20411;-49
2021/06/14 13:48:04;;;;;;;2.93;2.37;;;;;;;;;;5012281;28;20407;-49
2021/06/14 13:50:41;;;;;;;2.70;2.30;;;;;;;;;;5012684;28;20447;-49
2021/06/14 13:53:17;;;;;;;3.77;2.60;;;;;;;;;;5012581;28;20522;-50
2021/06/14 13:55:54;;;;;;;3.20;2.10;;;;;;;;;;5012639;28;20886;-49
2021/06/14 13:58:31;;;;;;;2.23;2.13;;;;;;;;;;5012061;28;20402;-49
2021/06/14 14:01:12;;;;;;;3.13;2.40;;;;;;;;;;5012679;28;20419;-50
2021/06/14 14:03:38;;;;;;;2.87;2.67;;;;;;;;;;5012372;28;20446;-51
2021/06/14 14:06:05;;;;;;;4.10;2.77;;;;;;;;;;5010597;28;20442;-50
2021/06/14 14:08:30;;;;;;;2.87;2.67;;;;;;;;;;5012153;28;20176;-50
2021/06/14 14:10:57;;;;;;;5.37;3.80;;;;;;;;;;5011700;28;20458;-49
2021/06/14 14:13:23;;;;;;;12.30;11.10;;;;;;;;;;5010509;28;20777;-49
2021/06/14 14:15:50;;;;;;;5.63;3.23;;;;;;;;;;5010270;28;20415;-49
2021/06/14 14:18:17;;;;;;;2.87;2.53;;;;;;;;;;5010551;28;20399;-49
2021/06/14 14:20:44;;;;;;;5.70;2.77;;;;;;;;;;5010015;28;20911;-50
2021/06/14 14:23:10;;;;;;;2.80;2.60;;;;;;;;;;5010214;28;20403;-50
2021/06/14 14:25:36;;;;;;;3.27;2.97;;;;;;;;;;5009951;28;20438;-50
2021/06/14 14:28:02;;;;;;;5.30;2.47;;;;;;;;;;5011672;28;20255;-50
2021/06/14 14:30:36;;;;;;;4.47;3.03;;;;;;;;;;5011796;28;20459;-49
2021/06/14 14:33:02;;;;;;;3.40;2.53;;;;;;;;;;5011814;28;20452;-49
2021/06/14 14:35:37;;;;;;;5.40;2.73;;;;;;;;;;5011258;28;20399;-49
2021/06/14 14:38:04;;;;;;;6.30;3.00;;;;;;;;;;5011933;28;20417;-52
2021/06/14 14:40:33;;;;;;;4.53;2.90;;;;;;;;;;5012034;28;20793;-50
2021/06/14 14:43:00;;;;;;;2.90;2.70;;;;;;;;;;5011952;28;20407;-50
2021/06/14 14:45:26;;;;;;;4.23;3.20;;;;;;;;;;5011786;28;20633;-50
2021/06/14 14:47:54;;;;;;;3.10;2.63;;;;;;;;;;5012798;28;20457;-52
2021/06/14 14:50:20;;;;;;;5.67;3.00;;;;;;;;;;5011560;28;20461;-50